createdAt,value
2017-10-15T00:00:49.036Z,15.29
2017-10-15T00:03:17.654Z,15.30
2017-10-15T00:05:46.301Z,15.29
2017-10-15T00:08:14.950Z,15.28
2017-10-15T00:10:43.614Z,15.28
2017-10-15T00:13:12.381Z,15.28
2017-10-15T00:15:41.001Z,15.28
2017-10-15T00:18:09.609Z,15.28
2017-10-15T00:20:38.253Z,15.27
2017-10-15T00:23:06.877Z,15.28
2017-10-15T00:25:35.548Z,15.28
2017-10-15T00:28:04.168Z,15.27
2017-10-15T00:30:32.795Z,15.26
2017-10-15T00:33:01.505Z,15.26
2017-10-15T00:35:30.126Z,15.26
2017-10-15T00:37:58.804Z,15.27
2017-10-15T00:40:27.690Z,15.27
2017-10-15T00:42:56.190Z,15.25
2017-10-15T00:45:28.281Z,15.26
2017-10-15T00:47:57.355Z,15.26
2017-10-15T00:50:26.046Z,15.23
2017-10-15T00:52:54.674Z,15.25
2017-10-15T00:55:22.991Z,15.24
2017-10-15T00:57:51.394Z,15.24
2017-10-15T01:00:20.013Z,15.24
2017-10-15T01:02:48.639Z,15.25
2017-10-15T01:05:17.310Z,15.24
2017-10-15T01:07:45.918Z,15.25
2017-10-15T01:10:14.625Z,15.24
2017-10-15T01:12:43.282Z,15.24
2017-10-15T01:15:11.955Z,15.24
2017-10-15T01:17:40.652Z,15.23
2017-10-15T01:20:09.303Z,15.21
2017-10-15T01:22:37.974Z,15.21
2017-10-15T01:25:06.398Z,15.20
2017-10-15T01:27:38.529Z,15.19
2017-10-15T01:30:06.919Z,15.18
2017-10-15T01:32:35.222Z,15.16
2017-10-15T01:35:03.531Z,15.15
2017-10-15T01:37:35.893Z,15.13
2017-10-15T01:40:04.207Z,15.13
2017-10-15T01:42:32.871Z,15.11
2017-10-15T01:45:01.607Z,15.11
2017-10-15T01:47:33.852Z,15.09
2017-10-15T01:50:02.216Z,15.06
2017-10-15T01:52:30.532Z,15.05
2017-10-15T01:54:58.858Z,15.04
2017-10-15T01:57:27.215Z,15.02
2017-10-15T01:59:55.516Z,15.00
2017-10-15T02:02:24.181Z,14.98
2017-10-15T02:04:52.801Z,14.96
2017-10-15T02:07:21.464Z,14.94
2017-10-15T02:09:50.107Z,14.93
2017-10-15T02:12:18.772Z,14.90
2017-10-15T02:14:47.405Z,14.88
2017-10-15T02:17:16.087Z,14.87
2017-10-15T02:19:44.709Z,14.84
2017-10-15T02:22:13.349Z,14.82
2017-10-15T02:24:42.023Z,14.80
2017-10-15T02:27:10.648Z,14.78
2017-10-15T02:29:39.274Z,14.76
2017-10-15T02:32:07.935Z,14.74
2017-10-15T02:34:36.589Z,14.72
2017-10-15T02:37:05.212Z,14.70
2017-10-15T02:39:33.869Z,14.67
2017-10-15T02:42:02.544Z,14.65
2017-10-15T02:44:31.026Z,14.64
2017-10-15T02:46:59.641Z,14.61
2017-10-15T02:49:28.188Z,14.59
2017-10-15T02:51:56.823Z,14.57
2017-10-15T02:54:25.454Z,14.53
2017-10-15T02:56:54.119Z,14.51
2017-10-15T02:59:22.824Z,14.48
2017-10-15T03:01:51.439Z,14.46
2017-10-15T03:04:20.109Z,14.44
2017-10-15T03:06:48.750Z,14.41
2017-10-15T03:09:17.448Z,14.39
2017-10-15T03:11:46.122Z,14.37
2017-10-15T03:14:14.792Z,14.35
2017-10-15T03:16:43.402Z,14.32
2017-10-15T03:19:12.096Z,14.30
2017-10-15T03:21:40.719Z,14.27
2017-10-15T03:24:09.390Z,14.26
2017-10-15T03:26:38.058Z,14.23
2017-10-15T03:29:06.728Z,14.21
2017-10-15T03:31:35.349Z,14.19
2017-10-15T03:34:05.725Z,14.16
2017-10-15T03:36:34.341Z,14.12
2017-10-15T03:39:03.011Z,14.10
2017-10-15T03:41:31.636Z,14.08
2017-10-15T03:44:00.312Z,14.06
2017-10-15T03:46:28.939Z,14.05
2017-10-15T03:48:57.551Z,14.01
2017-10-15T03:51:26.255Z,14.01
2017-10-15T03:53:54.932Z,13.99
2017-10-15T03:56:23.605Z,13.97
2017-10-15T03:58:52.112Z,13.96
2017-10-15T04:01:20.654Z,13.93
2017-10-15T04:03:49.124Z,13.93
2017-10-15T04:06:17.741Z,13.91
2017-10-15T04:08:46.400Z,13.89
2017-10-15T04:11:15.027Z,13.86
2017-10-15T04:13:43.717Z,13.85
2017-10-15T04:16:12.403Z,13.84
2017-10-15T04:18:40.943Z,13.82
2017-10-15T04:21:09.464Z,13.81
2017-10-15T04:23:37.947Z,13.80
2017-10-15T04:26:06.615Z,13.78
2017-10-15T04:28:35.256Z,13.76
2017-10-15T04:31:03.908Z,13.75
2017-10-15T04:33:32.554Z,13.75
2017-10-15T04:36:01.219Z,13.74
2017-10-15T04:38:29.839Z,13.73
2017-10-15T04:40:58.509Z,13.71
2017-10-15T04:43:27.134Z,13.71
2017-10-15T04:45:55.795Z,13.71
2017-10-15T04:48:24.427Z,13.70
2017-10-15T04:50:53.108Z,13.69
2017-10-15T04:53:21.754Z,13.69
2017-10-15T04:55:50.415Z,13.68
2017-10-15T04:58:19.045Z,13.68
2017-10-15T05:00:47.683Z,13.67
2017-10-15T05:03:16.357Z,13.66
2017-10-15T05:05:44.969Z,13.66
2017-10-15T05:08:13.626Z,13.67
2017-10-15T05:10:42.274Z,13.66
2017-10-15T05:13:10.787Z,13.66
2017-10-15T05:15:39.414Z,13.65
2017-10-15T05:18:07.886Z,13.65
2017-10-15T05:20:36.554Z,13.64
2017-10-15T05:23:05.177Z,13.64
2017-10-15T05:25:33.895Z,13.64
2017-10-15T05:28:02.515Z,13.64
2017-10-15T05:30:31.187Z,13.63
2017-10-15T05:32:59.813Z,13.63
2017-10-15T05:35:28.498Z,13.63
2017-10-15T05:37:57.165Z,13.63
2017-10-15T05:40:25.773Z,13.63
2017-10-15T05:42:54.448Z,13.62
2017-10-15T05:45:23.145Z,13.63
2017-10-15T05:47:51.779Z,13.62
2017-10-15T05:50:20.467Z,13.61
2017-10-15T05:52:49.118Z,13.61
2017-10-15T05:55:17.658Z,13.60
2017-10-15T05:57:46.288Z,13.60
2017-10-15T06:00:14.914Z,13.59
2017-10-15T06:02:43.574Z,13.59
2017-10-15T06:05:12.059Z,13.58
2017-10-15T06:07:40.743Z,13.57
2017-10-15T06:10:09.388Z,13.56
2017-10-15T06:12:38.085Z,13.56
2017-10-15T06:15:06.710Z,13.55
2017-10-15T06:17:35.381Z,13.55
2017-10-15T06:20:04.025Z,13.54
2017-10-15T06:22:32.699Z,13.53
2017-10-15T06:25:01.371Z,13.53
2017-10-15T06:27:33.619Z,13.50
2017-10-15T06:30:02.096Z,13.51
2017-10-15T06:32:30.746Z,13.50
2017-10-15T06:34:59.367Z,13.50
2017-10-15T06:37:28.049Z,13.51
2017-10-15T06:39:56.689Z,13.50
2017-10-15T06:42:25.380Z,13.50
2017-10-15T06:44:54.058Z,13.49
2017-10-15T06:47:22.734Z,13.49
2017-10-15T06:49:51.418Z,13.51
2017-10-15T06:52:20.080Z,13.50
2017-10-15T06:54:48.699Z,13.50
2017-10-15T06:57:17.378Z,13.51
2017-10-15T06:59:45.994Z,13.53
2017-10-15T07:02:14.662Z,13.53
2017-10-15T07:04:43.313Z,13.54
2017-10-15T07:07:11.962Z,13.54
2017-10-15T07:09:40.668Z,13.55
2017-10-15T07:12:09.325Z,13.55
2017-10-15T07:14:38.037Z,13.56
2017-10-15T07:17:06.654Z,13.57
2017-10-15T07:19:35.311Z,13.57
2017-10-15T07:22:03.966Z,13.58
2017-10-15T07:24:32.640Z,13.58
2017-10-15T07:27:01.271Z,13.59
2017-10-15T07:29:29.950Z,13.60
2017-10-15T07:31:58.581Z,13.62
2017-10-15T07:34:27.238Z,13.62
2017-10-15T07:36:55.949Z,13.65
2017-10-15T07:39:24.609Z,13.66
2017-10-15T07:41:53.222Z,13.68
2017-10-15T07:44:21.843Z,13.70
2017-10-15T07:46:50.652Z,13.71
2017-10-15T07:49:19.267Z,13.74
2017-10-15T07:51:47.931Z,13.75
2017-10-15T07:54:16.568Z,13.76
2017-10-15T07:56:45.237Z,13.78
2017-10-15T07:59:13.854Z,13.80
2017-10-15T08:01:42.483Z,13.83
2017-10-15T08:04:11.163Z,13.84
2017-10-15T08:06:39.776Z,13.87
2017-10-15T08:09:08.438Z,13.88
2017-10-15T08:11:37.051Z,13.90
2017-10-15T08:14:05.707Z,13.92
2017-10-15T08:16:34.320Z,13.94
2017-10-15T08:19:03.015Z,13.97
2017-10-15T08:21:31.684Z,13.99
2017-10-15T08:24:00.300Z,14.01
2017-10-15T08:26:28.957Z,14.03
2017-10-15T08:28:57.586Z,14.06
2017-10-15T08:31:26.203Z,14.08
2017-10-15T08:33:54.867Z,14.11
2017-10-15T08:36:23.546Z,14.13
2017-10-15T08:38:52.222Z,14.16
2017-10-15T08:41:20.899Z,14.18
2017-10-15T08:43:49.510Z,14.19
2017-10-15T08:46:21.214Z,14.21
2017-10-15T08:48:49.857Z,14.23
2017-10-15T08:51:18.526Z,14.25
2017-10-15T08:53:47.170Z,14.27
2017-10-15T08:56:15.808Z,14.30
2017-10-15T08:58:44.488Z,14.31
2017-10-15T09:01:13.154Z,14.33
2017-10-15T09:03:41.852Z,14.35
2017-10-15T09:06:10.463Z,14.37
2017-10-15T09:08:39.101Z,14.38
2017-10-15T09:11:07.779Z,14.40
2017-10-15T09:13:36.396Z,14.43
2017-10-15T09:16:05.075Z,14.45
2017-10-15T09:18:33.711Z,14.47
2017-10-15T09:21:02.332Z,14.48
2017-10-15T09:23:30.991Z,14.51
2017-10-15T09:25:59.622Z,14.53
2017-10-15T09:28:28.234Z,14.55
2017-10-15T09:30:56.759Z,14.58
2017-10-15T09:33:25.285Z,14.61
2017-10-15T09:35:53.901Z,14.62
2017-10-15T09:38:22.566Z,14.65
2017-10-15T09:40:51.193Z,14.67
2017-10-15T09:43:19.865Z,14.70
2017-10-15T09:45:48.565Z,14.72
2017-10-15T09:48:17.236Z,14.74
2017-10-15T09:50:45.854Z,14.77
2017-10-15T09:53:14.362Z,14.79
2017-10-15T09:55:42.997Z,14.83
2017-10-15T09:58:11.692Z,14.85
2017-10-15T10:00:40.337Z,14.88
2017-10-15T10:03:08.972Z,14.90
2017-10-15T10:05:37.651Z,14.93
2017-10-15T10:08:06.295Z,14.96
2017-10-15T10:10:34.948Z,14.99
2017-10-15T10:13:03.570Z,15.01
2017-10-15T10:15:32.231Z,15.05
2017-10-15T10:18:00.860Z,15.07
2017-10-15T10:20:29.510Z,15.11
2017-10-15T10:22:58.131Z,15.14
2017-10-15T10:25:26.795Z,15.17
2017-10-15T10:27:55.447Z,15.21
2017-10-15T10:30:24.142Z,15.23
2017-10-15T10:32:52.751Z,15.26
2017-10-15T10:35:21.413Z,15.29
2017-10-15T10:37:50.022Z,15.32
2017-10-15T10:40:18.734Z,15.35
2017-10-15T10:42:47.358Z,15.39
2017-10-15T10:45:15.994Z,15.42
2017-10-15T10:47:44.663Z,15.46
2017-10-15T10:50:13.282Z,15.49
2017-10-15T10:52:41.956Z,15.52
2017-10-15T10:55:10.608Z,15.56
2017-10-15T10:57:39.280Z,15.58
2017-10-15T11:00:07.894Z,15.62
2017-10-15T11:02:36.516Z,15.65
2017-10-15T11:05:05.188Z,15.68
2017-10-15T11:07:36.283Z,15.71
2017-10-15T11:10:04.968Z,15.75
2017-10-15T11:12:33.604Z,15.77
2017-10-15T11:15:02.288Z,15.81
2017-10-15T11:17:35.278Z,15.84
2017-10-15T11:20:03.946Z,15.88
2017-10-15T11:22:32.586Z,15.92
2017-10-15T11:25:01.265Z,15.95
2017-10-15T11:27:35.058Z,15.99
2017-10-15T11:30:03.686Z,16.02
2017-10-15T11:32:32.310Z,16.05
2017-10-15T11:35:00.990Z,16.09
2017-10-15T11:37:29.617Z,16.12
2017-10-15T11:39:58.306Z,16.15
2017-10-15T11:42:26.948Z,16.17
2017-10-15T11:44:55.627Z,16.20
2017-10-15T11:47:24.243Z,16.24
2017-10-15T11:49:52.851Z,16.25
2017-10-15T11:52:21.518Z,16.30
2017-10-15T11:54:50.133Z,16.33
2017-10-15T11:57:18.804Z,16.34
2017-10-15T11:59:47.420Z,16.37
2017-10-15T12:02:16.103Z,16.40
2017-10-15T12:04:44.725Z,16.43
2017-10-15T12:07:13.340Z,16.46
2017-10-15T12:09:41.991Z,16.48
2017-10-15T12:12:10.619Z,16.51
2017-10-15T12:14:39.161Z,16.55
2017-10-15T12:17:07.771Z,16.58
2017-10-15T12:19:36.260Z,16.60
2017-10-15T12:22:04.922Z,16.62
2017-10-15T12:24:33.534Z,16.65
2017-10-15T12:27:02.178Z,16.68
2017-10-15T12:29:30.794Z,16.69
2017-10-15T12:31:59.438Z,16.72
2017-10-15T12:34:28.071Z,16.75
2017-10-15T12:36:56.729Z,16.79
2017-10-15T12:39:25.378Z,16.81
2017-10-15T12:41:53.988Z,16.84
2017-10-15T12:44:22.653Z,16.87
2017-10-15T12:46:51.293Z,16.90
2017-10-15T12:49:19.910Z,16.92
2017-10-15T12:51:48.555Z,16.95
2017-10-15T12:54:17.166Z,16.98
2017-10-15T12:56:45.814Z,17.02
2017-10-15T12:59:14.418Z,17.04
2017-10-15T13:01:43.068Z,17.08
2017-10-15T13:04:11.713Z,17.11
2017-10-15T13:06:40.345Z,17.15
2017-10-15T13:09:09.015Z,17.18
2017-10-15T13:11:37.685Z,17.21
2017-10-15T13:14:06.295Z,17.23
2017-10-15T13:16:34.947Z,17.26
2017-10-15T13:19:03.572Z,17.29
2017-10-15T13:21:32.226Z,17.32
2017-10-15T13:24:00.693Z,17.35
2017-10-15T13:26:29.369Z,17.37
2017-10-15T13:28:57.831Z,17.41
2017-10-15T13:31:26.456Z,17.43
2017-10-15T13:33:55.115Z,17.46
2017-10-15T13:36:23.584Z,17.48
2017-10-15T13:38:52.193Z,17.50
2017-10-15T13:41:20.857Z,17.53
2017-10-15T13:43:49.462Z,17.57
2017-10-15T13:46:18.112Z,17.59
2017-10-15T13:48:46.726Z,17.62
2017-10-15T13:51:15.375Z,17.64
2017-10-15T13:53:43.980Z,17.66
2017-10-15T13:56:12.637Z,17.68
2017-10-15T13:58:41.271Z,17.72
2017-10-15T14:01:09.807Z,17.74
2017-10-15T14:03:38.433Z,17.77
2017-10-15T14:06:06.960Z,17.81
2017-10-15T14:08:35.451Z,17.82
2017-10-15T14:11:04.095Z,17.84
2017-10-15T14:13:32.706Z,17.87
2017-10-15T14:16:01.358Z,17.89
2017-10-15T14:18:29.966Z,17.91
2017-10-15T14:20:58.606Z,17.92
2017-10-15T14:23:27.265Z,17.92
2017-10-15T14:25:55.884Z,17.93
2017-10-15T14:28:24.417Z,17.95
2017-10-15T14:30:53.026Z,17.96
2017-10-15T14:33:21.685Z,17.99
2017-10-15T14:35:50.295Z,18.01
2017-10-15T14:38:18.917Z,18.02
2017-10-15T14:40:47.425Z,18.04
2017-10-15T14:43:15.932Z,18.04
2017-10-15T14:45:44.466Z,18.04
2017-10-15T14:48:12.958Z,18.05
2017-10-15T14:50:41.607Z,18.06
2017-10-15T14:53:10.216Z,18.06
2017-10-15T14:55:38.839Z,18.07
2017-10-15T14:58:07.499Z,18.08
2017-10-15T15:00:36.061Z,18.08
2017-10-15T15:03:04.678Z,18.09
2017-10-15T15:05:33.343Z,18.09
2017-10-15T15:08:01.811Z,18.09
2017-10-15T15:10:31.363Z,18.07
2017-10-15T15:12:59.975Z,18.07
2017-10-15T15:15:28.643Z,18.07
2017-10-15T15:17:57.243Z,18.06
2017-10-15T15:20:25.927Z,18.07
2017-10-15T15:22:54.579Z,18.06
2017-10-15T15:25:23.191Z,18.06
2017-10-15T15:27:51.838Z,18.06
2017-10-15T15:30:20.456Z,18.04
2017-10-15T15:32:49.136Z,18.03
2017-10-15T15:35:17.614Z,18.02
2017-10-15T15:37:46.599Z,18.00
2017-10-15T15:40:15.253Z,17.99
2017-10-15T15:42:43.873Z,17.98
2017-10-15T15:45:12.556Z,17.96
2017-10-15T15:47:41.228Z,17.94
2017-10-15T15:50:09.892Z,17.93
2017-10-15T15:52:38.393Z,17.91
2017-10-15T15:55:07.048Z,17.88
2017-10-15T15:57:35.677Z,17.85
2017-10-15T16:00:04.044Z,17.83
2017-10-15T16:02:32.744Z,17.81
2017-10-15T16:05:01.395Z,17.78
2017-10-15T16:07:30.044Z,17.75
2017-10-15T16:09:58.701Z,17.71
2017-10-15T16:12:27.397Z,17.69
2017-10-15T16:14:55.915Z,17.65
2017-10-15T16:17:24.392Z,17.63
2017-10-15T16:19:53.054Z,17.59
2017-10-15T16:22:21.691Z,17.56
2017-10-15T16:24:50.375Z,17.52
2017-10-15T16:27:19.020Z,17.48
2017-10-15T16:29:47.681Z,17.45
2017-10-15T16:32:16.320Z,17.41
2017-10-15T16:34:45.045Z,17.37
2017-10-15T16:37:13.657Z,17.33
2017-10-15T16:39:42.350Z,17.29
2017-10-15T16:42:10.976Z,17.26
2017-10-15T16:44:39.591Z,17.23
2017-10-15T16:47:08.090Z,17.18
2017-10-15T16:49:36.716Z,17.14
2017-10-15T16:52:05.394Z,17.10
2017-10-15T16:54:33.847Z,17.06
2017-10-15T16:57:02.463Z,17.02
2017-10-15T16:59:30.982Z,16.99
2017-10-15T17:01:59.488Z,16.96
2017-10-15T17:04:28.105Z,16.91
2017-10-15T17:06:56.629Z,16.88
2017-10-15T17:09:25.145Z,16.83
2017-10-15T17:11:53.862Z,16.79
2017-10-15T17:14:22.501Z,16.77
2017-10-15T17:16:51.168Z,16.73
2017-10-15T17:19:19.779Z,16.69
2017-10-15T17:21:48.350Z,16.67
2017-10-15T17:24:16.986Z,16.64
2017-10-15T17:26:45.448Z,16.62
2017-10-15T17:29:14.102Z,16.59
2017-10-15T17:31:42.713Z,16.57
2017-10-15T17:34:11.223Z,16.54
2017-10-15T17:36:39.692Z,16.51
2017-10-15T17:39:08.311Z,16.48
2017-10-15T17:41:37.036Z,16.46
2017-10-15T17:44:05.650Z,16.43
2017-10-15T17:46:34.303Z,16.41
2017-10-15T17:49:02.923Z,16.37
2017-10-15T17:51:31.574Z,16.35
2017-10-15T17:54:00.231Z,16.33
2017-10-15T17:56:28.710Z,16.31
2017-10-15T17:58:57.236Z,16.28
2017-10-15T18:01:25.585Z,16.26
2017-10-15T18:03:54.254Z,16.24
2017-10-15T18:06:22.911Z,16.22
2017-10-15T18:08:51.558Z,16.20
2017-10-15T18:11:20.158Z,16.18
2017-10-15T18:13:48.822Z,16.15
2017-10-15T18:16:17.475Z,16.12
2017-10-15T18:18:46.091Z,16.10
2017-10-15T18:21:14.702Z,16.07
2017-10-15T18:23:43.355Z,16.04
2017-10-15T18:26:11.979Z,16.01
2017-10-15T18:28:40.672Z,15.98
2017-10-15T18:31:09.300Z,15.95
2017-10-15T18:33:37.919Z,15.93
2017-10-15T18:36:06.577Z,15.89
2017-10-15T18:38:35.193Z,15.87
2017-10-15T18:41:03.879Z,15.84
2017-10-15T18:43:32.550Z,15.82
2017-10-15T18:46:01.070Z,15.78
2017-10-15T18:48:29.765Z,15.75
2017-10-15T18:50:58.239Z,15.72
2017-10-15T18:53:26.759Z,15.69
2017-10-15T18:55:55.383Z,15.66
2017-10-15T18:58:24.037Z,15.64
2017-10-15T19:00:52.662Z,15.61
2017-10-15T19:03:21.330Z,15.59
2017-10-15T19:05:49.939Z,15.56
2017-10-15T19:08:18.658Z,15.53
2017-10-15T19:10:47.157Z,15.50
2017-10-15T19:13:15.817Z,15.48
2017-10-15T19:15:44.345Z,15.45
2017-10-15T19:18:12.963Z,15.42
2017-10-15T19:20:41.470Z,15.40
2017-10-15T19:23:10.099Z,15.38
2017-10-15T19:25:38.796Z,15.35
2017-10-15T19:28:07.405Z,15.34
2017-10-15T19:30:36.095Z,15.32
2017-10-15T19:33:04.714Z,15.30
2017-10-15T19:35:33.323Z,15.28
2017-10-15T19:38:01.983Z,15.26
2017-10-15T19:40:30.464Z,15.24
2017-10-15T19:42:59.132Z,15.23
2017-10-15T19:45:27.837Z,15.21
2017-10-15T19:47:56.456Z,15.19
2017-10-15T19:50:25.117Z,15.16
2017-10-15T19:52:53.730Z,15.14
2017-10-15T19:55:22.378Z,15.13
2017-10-15T19:57:50.854Z,15.11
2017-10-15T20:00:19.535Z,15.08
2017-10-15T20:02:48.042Z,15.07
2017-10-15T20:05:16.558Z,15.04
2017-10-15T20:07:45.168Z,15.02
2017-10-15T20:10:13.854Z,15.02
2017-10-15T20:12:42.505Z,14.98
2017-10-15T20:15:11.171Z,14.97
2017-10-15T20:17:39.846Z,14.94
2017-10-15T20:20:08.491Z,14.92
2017-10-15T20:22:37.139Z,14.91
2017-10-15T20:25:05.825Z,14.90
2017-10-15T20:27:37.460Z,14.88
2017-10-15T20:30:06.124Z,14.87
2017-10-15T20:32:34.739Z,14.85
2017-10-15T20:35:03.360Z,14.83
2017-10-15T20:37:31.878Z,14.81
2017-10-15T20:40:00.503Z,14.80
2017-10-15T20:42:29.128Z,14.76
2017-10-15T20:44:57.774Z,14.74
2017-10-15T20:47:26.436Z,14.73
2017-10-15T20:49:55.061Z,14.71
2017-10-15T20:52:23.724Z,14.70
2017-10-15T20:54:52.353Z,14.68
2017-10-15T20:57:21.022Z,14.65
2017-10-15T20:59:49.623Z,14.64
2017-10-15T21:02:18.234Z,14.63
2017-10-15T21:04:46.895Z,14.60
2017-10-15T21:07:15.550Z,14.59
2017-10-15T21:09:44.172Z,14.57
2017-10-15T21:12:12.850Z,14.55
2017-10-15T21:14:41.462Z,14.53
2017-10-15T21:17:10.126Z,14.51
2017-10-15T21:19:38.743Z,14.50
2017-10-15T21:22:07.406Z,14.48
2017-10-15T21:24:36.029Z,14.47
2017-10-15T21:27:04.680Z,14.46
2017-10-15T21:29:33.293Z,14.45
2017-10-15T21:32:01.967Z,14.43
2017-10-15T21:34:30.587Z,14.41
2017-10-15T21:36:59.189Z,14.40
2017-10-15T21:39:27.844Z,14.40
2017-10-15T21:41:56.460Z,14.38
2017-10-15T21:44:25.134Z,14.36
2017-10-15T21:46:53.776Z,14.36
2017-10-15T21:49:22.425Z,14.34
2017-10-15T21:51:51.047Z,14.34
2017-10-15T21:54:19.719Z,14.33
2017-10-15T21:56:48.346Z,14.32
2017-10-15T21:59:16.967Z,14.32
2017-10-15T22:01:45.623Z,14.31
2017-10-15T22:04:14.284Z,14.29
2017-10-15T22:06:42.910Z,14.30
2017-10-15T22:09:11.584Z,14.29
2017-10-15T22:11:40.196Z,14.29
2017-10-15T22:14:08.870Z,14.28
2017-10-15T22:16:37.513Z,14.27
2017-10-15T22:19:06.129Z,14.27
2017-10-15T22:21:40.106Z,14.27
2017-10-15T22:24:08.730Z,14.27
2017-10-15T22:26:37.352Z,14.25
2017-10-15T22:29:06.039Z,14.25
2017-10-15T22:31:34.650Z,14.25
2017-10-15T22:34:03.256Z,14.24
2017-10-15T22:36:31.934Z,14.23
2017-10-15T22:39:00.551Z,14.23
2017-10-15T22:41:29.155Z,14.22
2017-10-15T22:43:57.840Z,14.21
2017-10-15T22:46:26.441Z,14.20
2017-10-15T22:48:55.050Z,14.20
2017-10-15T22:51:23.706Z,14.18
2017-10-15T22:53:52.305Z,14.16
2017-10-15T22:56:20.955Z,14.16
2017-10-15T22:58:49.579Z,14.15
2017-10-15T23:01:18.233Z,14.15
2017-10-15T23:03:46.844Z,14.13
2017-10-15T23:06:15.472Z,14.13
2017-10-15T23:08:44.131Z,14.12
2017-10-15T23:11:12.746Z,14.11
2017-10-15T23:13:41.396Z,14.10
2017-10-15T23:16:10.008Z,14.09
2017-10-15T23:18:38.664Z,14.08
2017-10-15T23:21:07.306Z,14.07
2017-10-15T23:23:35.930Z,14.05
2017-10-15T23:26:04.594Z,14.04
2017-10-15T23:28:33.220Z,14.03
2017-10-15T23:31:01.887Z,14.01
2017-10-15T23:33:30.408Z,13.99
2017-10-15T23:35:59.036Z,13.98
2017-10-15T23:38:27.522Z,13.96
2017-10-15T23:40:56.186Z,13.93
2017-10-15T23:43:24.818Z,13.93
2017-10-15T23:45:53.443Z,13.91
2017-10-15T23:48:22.151Z,13.90
2017-10-15T23:50:50.775Z,13.89
2017-10-15T23:53:19.395Z,13.86
2017-10-15T23:55:48.063Z,13.84
2017-10-15T23:58:16.688Z,13.83
